sensor_id;sensor_type;location;lat;lon;timestamp;pressure;altitude;pressure_sealevel;temperature
68510;BMP180;55512;50.102;19.958;2022-07-18T00:00:59;99684.80;;;13.30
68510;BMP180;55512;50.102;19.958;2022-07-18T00:03:25;99685.40;;;13.18
68510;BMP180;55512;50.102;19.958;2022-07-18T00:05:51;99686.40;;;13.10
68510;BMP180;55512;50.102;19.958;2022-07-18T00:08:17;99687.80;;;13.10
68510;BMP180;55512;50.102;19.958;2022-07-18T00:10:43;99687.40;;;13.14
68510;BMP180;55512;50.102;19.958;2022-07-18T00:13:09;99688.00;;;13.10
68510;BMP180;55512;50.102;19.958;2022-07-18T00:15:36;99682.80;;;13.10
68510;BMP180;55512;50.102;19.958;2022-07-18T00:18:03;99677.60;;;13.00
68510;BMP180;55512;50.102;19.958;2022-07-18T00:20:29;99685.00;;;12.90
68510;BMP180;55512;50.102;19.958;2022-07-18T00:22:55;99688.20;;;12.84
68510;BMP180;55512;50.102;19.958;2022-07-18T00:25:21;99681.80;;;12.80
68510;BMP180;55512;50.102;19.958;2022-07-18T00:27:47;99682.00;;;12.80
68510;BMP180;55512;50.102;19.958;2022-07-18T00:30:16;99680.60;;;12.80
68510;BMP180;55512;50.102;19.958;2022-07-18T00:32:41;99683.80;;;12.76
68510;BMP180;55512;50.102;19.958;2022-07-18T00:35:08;99686.00;;;12.70
68510;BMP180;55512;50.102;19.958;2022-07-18T00:37:34;99686.80;;;12.70
68510;BMP180;55512;50.102;19.958;2022-07-18T00:39:59;99688.60;;;12.70
68510;BMP180;55512;50.102;19.958;2022-07-18T00:42:25;99688.00;;;12.70
68510;BMP180;55512;50.102;19.958;2022-07-18T00:44:54;99684.40;;;12.70
68510;BMP180;55512;50.102;19.958;2022-07-18T00:47:21;99687.40;;;12.60
68510;BMP180;55512;50.102;19.958;2022-07-18T00:49:47;99684.20;;;12.80
68510;BMP180;55512;50.102;19.958;2022-07-18T00:52:13;99685.20;;;12.80
68510;BMP180;55512;50.102;19.958;2022-07-18T00:54:39;99683.00;;;12.82
68510;BMP180;55512;50.102;19.958;2022-07-18T00:57:05;99687.20;;;12.90
68510;BMP180;55512;50.102;19.958;2022-07-18T00:59:32;99687.20;;;12.88
68510;BMP180;55512;50.102;19.958;2022-07-18T01:02:18;99682.80;;;12.80
68510;BMP180;55512;50.102;19.958;2022-07-18T01:04:44;99680.80;;;12.80
68510;BMP180;55512;50.102;19.958;2022-07-18T01:07:09;99676.60;;;12.80
68510;BMP180;55512;50.102;19.958;2022-07-18T01:09:35;99672.80;;;12.80
68510;BMP180;55512;50.102;19.958;2022-07-18T01:12:03;99669.20;;;12.60
68510;BMP180;55512;50.102;19.958;2022-07-18T01:14:30;99665.80;;;12.50
68510;BMP180;55512;50.102;19.958;2022-07-18T01:16:55;99661.20;;;12.40
68510;BMP180;55512;50.102;19.958;2022-07-18T01:19:22;99663.80;;;12.40
68510;BMP180;55512;50.102;19.958;2022-07-18T01:21:47;99661.00;;;12.40
68510;BMP180;55512;50.102;19.958;2022-07-18T01:24:13;99663.60;;;12.34
68510;BMP180;55512;50.102;19.958;2022-07-18T01:26:39;99660.20;;;12.30
68510;BMP180;55512;50.102;19.958;2022-07-18T01:29:05;99658.80;;;12.30
68510;BMP180;55512;50.102;19.958;2022-07-18T01:31:30;99659.80;;;12.30
68510;BMP180;55512;50.102;19.958;2022-07-18T01:34:00;99662.00;;;12.24
68510;BMP180;55512;50.102;19.958;2022-07-18T01:36:26;99653.40;;;12.20
68510;BMP180;55512;50.102;19.958;2022-07-18T01:38:52;99655.60;;;12.20
68510;BMP180;55512;50.102;19.958;2022-07-18T01:41:17;99654.20;;;12.10
68510;BMP180;55512;50.102;19.958;2022-07-18T01:43:43;99652.80;;;12.10
68510;BMP180;55512;50.102;19.958;2022-07-18T01:46:10;99652.20;;;12.00
68510;BMP180;55512;50.102;19.958;2022-07-18T01:48:40;99647.20;;;12.00
68510;BMP180;55512;50.102;19.958;2022-07-18T01:51:07;99647.60;;;11.98
68510;BMP180;55512;50.102;19.958;2022-07-18T01:53:41;99644.80;;;11.90
68510;BMP180;55512;50.102;19.958;2022-07-18T01:56:07;99648.80;;;11.90
68510;BMP180;55512;50.102;19.958;2022-07-18T01:58:33;99646.00;;;11.90
68510;BMP180;55512;50.102;19.958;2022-07-18T02:00:59;99645.40;;;11.90
68510;BMP180;55512;50.102;19.958;2022-07-18T02:03:25;99645.40;;;11.90
68510;BMP180;55512;50.102;19.958;2022-07-18T02:05:50;99644.80;;;11.90
68510;BMP180;55512;50.102;19.958;2022-07-18T02:08:15;99646.40;;;11.82
68510;BMP180;55512;50.102;19.958;2022-07-18T02:10:41;99643.60;;;11.80
68510;BMP180;55512;50.102;19.958;2022-07-18T02:13:07;99643.80;;;11.80
68510;BMP180;55512;50.102;19.958;2022-07-18T02:15:33;99639.20;;;11.70
68510;BMP180;55512;50.102;19.958;2022-07-18T02:17:58;99637.00;;;11.70
68510;BMP180;55512;50.102;19.958;2022-07-18T02:20:24;99636.00;;;11.70
68510;BMP180;55512;50.102;19.958;2022-07-18T02:22:50;99637.00;;;11.70
68510;BMP180;55512;50.102;19.958;2022-07-18T02:25:15;99637.20;;;11.70
68510;BMP180;55512;50.102;19.958;2022-07-18T02:27:41;99638.20;;;11.70
68510;BMP180;55512;50.102;19.958;2022-07-18T02:30:09;99640.60;;;11.60
68510;BMP180;55512;50.102;19.958;2022-07-18T02:32:36;99638.80;;;11.60
68510;BMP180;55512;50.102;19.958;2022-07-18T02:35:06;99640.20;;;11.60
68510;BMP180;55512;50.102;19.958;2022-07-18T02:37:32;99645.60;;;11.60
68510;BMP180;55512;50.102;19.958;2022-07-18T02:39:58;99647.20;;;11.60
68510;BMP180;55512;50.102;19.958;2022-07-18T02:42:23;99642.80;;;11.60
68510;BMP180;55512;50.102;19.958;2022-07-18T02:44:49;99642.80;;;11.56
68510;BMP180;55512;50.102;19.958;2022-07-18T02:47:15;99645.40;;;11.50
68510;BMP180;55512;50.102;19.958;2022-07-18T02:49:40;99646.00;;;11.50
68510;BMP180;55512;50.102;19.958;2022-07-18T02:52:08;99642.60;;;11.50
68510;BMP180;55512;50.102;19.958;2022-07-18T02:54:36;99638.80;;;11.50
68510;BMP180;55512;50.102;19.958;2022-07-18T02:57:03;99638.80;;;11.50
68510;BMP180;55512;50.102;19.958;2022-07-18T02:59:29;99639.60;;;11.50
68510;BMP180;55512;50.102;19.958;2022-07-18T03:01:55;99641.40;;;11.50
68510;BMP180;55512;50.102;19.958;2022-07-18T03:04:22;99644.80;;;11.50
68510;BMP180;55512;50.102;19.958;2022-07-18T03:06:49;99645.00;;;11.50
68510;BMP180;55512;50.102;19.958;2022-07-18T03:09:16;99645.20;;;11.50
68510;BMP180;55512;50.102;19.958;2022-07-18T03:11:42;99645.00;;;11.50
68510;BMP180;55512;50.102;19.958;2022-07-18T03:14:08;99649.60;;;11.50
68510;BMP180;55512;50.102;19.958;2022-07-18T03:16:34;99649.00;;;11.50
68510;BMP180;55512;50.102;19.958;2022-07-18T03:19:00;99650.00;;;11.50
68510;BMP180;55512;50.102;19.958;2022-07-18T03:21:26;99651.20;;;11.50
68510;BMP180;55512;50.102;19.958;2022-07-18T03:23:52;99652.00;;;11.40
68510;BMP180;55512;50.102;19.958;2022-07-18T03:26:17;99652.60;;;11.40
68510;BMP180;55512;50.102;19.958;2022-07-18T03:28:43;99656.80;;;11.40
68510;BMP180;55512;50.102;19.958;2022-07-18T03:31:08;99660.40;;;11.40
68510;BMP180;55512;50.102;19.958;2022-07-18T03:33:34;99659.20;;;11.40
68510;BMP180;55512;50.102;19.958;2022-07-18T03:36:00;99659.80;;;11.40
68510;BMP180;55512;50.102;19.958;2022-07-18T03:38:26;99660.40;;;11.46
68510;BMP180;55512;50.102;19.958;2022-07-18T03:40:51;99666.40;;;11.50
68510;BMP180;55512;50.102;19.958;2022-07-18T03:43:17;99664.40;;;11.50
68510;BMP180;55512;50.102;19.958;2022-07-18T03:45:42;99662.80;;;11.50
68510;BMP180;55512;50.102;19.958;2022-07-18T03:48:08;99662.20;;;11.48
68510;BMP180;55512;50.102;19.958;2022-07-18T03:50:33;99660.80;;;11.50
68510;BMP180;55512;50.102;19.958;2022-07-18T03:53:00;99666.40;;;11.48
68510;BMP180;55512;50.102;19.958;2022-07-18T03:55:25;99666.20;;;11.50
68510;BMP180;55512;50.102;19.958;2022-07-18T03:57:51;99667.40;;;11.50
68510;BMP180;55512;50.102;19.958;2022-07-18T04:00:17;99674.60;;;11.60
68510;BMP180;55512;50.102;19.958;2022-07-18T04:02:46;99673.80;;;11.60
68510;BMP180;55512;50.102;19.958;2022-07-18T04:05:13;99679.60;;;11.62
68510;BMP180;55512;50.102;19.958;2022-07-18T04:07:40;99682.40;;;11.70
68510;BMP180;55512;50.102;19.958;2022-07-18T04:10:08;99676.80;;;11.70
68510;BMP180;55512;50.102;19.958;2022-07-18T04:12:44;99683.40;;;11.80
68510;BMP180;55512;50.102;19.958;2022-07-18T04:15:10;99680.00;;;11.86
68510;BMP180;55512;50.102;19.958;2022-07-18T04:17:35;99682.40;;;11.90
68510;BMP180;55512;50.102;19.958;2022-07-18T04:20:02;99683.20;;;12.00
68510;BMP180;55512;50.102;19.958;2022-07-18T04:22:28;99685.00;;;12.10
68510;BMP180;55512;50.102;19.958;2022-07-18T04:24:53;99686.00;;;12.16
68510;BMP180;55512;50.102;19.958;2022-07-18T04:27:19;99689.20;;;12.30
68510;BMP180;55512;50.102;19.958;2022-07-18T04:29:45;99689.20;;;12.40
68510;BMP180;55512;50.102;19.958;2022-07-18T04:32:10;99689.00;;;12.54
68510;BMP180;55512;50.102;19.958;2022-07-18T04:34:36;99690.80;;;12.80
68510;BMP180;55512;50.102;19.958;2022-07-18T04:37:02;99695.40;;;12.92
68510;BMP180;55512;50.102;19.958;2022-07-18T04:39:27;99697.00;;;13.04
68510;BMP180;55512;50.102;19.958;2022-07-18T04:41:53;99700.20;;;13.20
68510;BMP180;55512;50.102;19.958;2022-07-18T04:44:19;99701.80;;;13.36
68510;BMP180;55512;50.102;19.958;2022-07-18T04:46:44;99696.40;;;13.50
68510;BMP180;55512;50.102;19.958;2022-07-18T04:49:10;99703.60;;;13.60
68510;BMP180;55512;50.102;19.958;2022-07-18T04:51:36;99703.20;;;13.80
68510;BMP180;55512;50.102;19.958;2022-07-18T04:54:02;99701.20;;;13.96
68510;BMP180;55512;50.102;19.958;2022-07-18T04:56:27;99699.20;;;14.18
68510;BMP180;55512;50.102;19.958;2022-07-18T04:58:53;99700.40;;;14.38
68510;BMP180;55512;50.102;19.958;2022-07-18T05:01:19;99701.40;;;14.54
68510;BMP180;55512;50.102;19.958;2022-07-18T05:03:44;99701.60;;;14.72
68510;BMP180;55512;50.102;19.958;2022-07-18T05:06:10;99694.60;;;14.90
68510;BMP180;55512;50.102;19.958;2022-07-18T05:08:35;99696.20;;;15.10
68510;BMP180;55512;50.102;19.958;2022-07-18T05:11:01;99697.00;;;15.10
68510;BMP180;55512;50.102;19.958;2022-07-18T05:13:27;99695.20;;;15.20
68510;BMP180;55512;50.102;19.958;2022-07-18T05:15:53;99693.40;;;15.30
68510;BMP180;55512;50.102;19.958;2022-07-18T05:18:18;99692.20;;;15.40
68510;BMP180;55512;50.102;19.958;2022-07-18T05:20:44;99695.00;;;15.50
68510;BMP180;55512;50.102;19.958;2022-07-18T05:23:13;99691.00;;;15.70
68510;BMP180;55512;50.102;19.958;2022-07-18T05:25:39;99686.80;;;15.90
68510;BMP180;55512;50.102;19.958;2022-07-18T05:28:05;99684.60;;;16.00
68510;BMP180;55512;50.102;19.958;2022-07-18T05:30:31;99682.40;;;16.16
68510;BMP180;55512;50.102;19.958;2022-07-18T05:32:57;99685.40;;;16.28
68510;BMP180;55512;50.102;19.958;2022-07-18T05:35:22;99683.00;;;16.30
68510;BMP180;55512;50.102;19.958;2022-07-18T05:37:48;99685.60;;;16.40
68510;BMP180;55512;50.102;19.958;2022-07-18T05:40:14;99685.40;;;16.48
68510;BMP180;55512;50.102;19.958;2022-07-18T05:42:43;99685.00;;;16.54
68510;BMP180;55512;50.102;19.958;2022-07-18T05:45:09;99685.60;;;16.70
68510;BMP180;55512;50.102;19.958;2022-07-18T05:47:35;99679.00;;;16.80
68510;BMP180;55512;50.102;19.958;2022-07-18T05:50:02;99678.80;;;17.06
68510;BMP180;55512;50.102;19.958;2022-07-18T05:52:28;99681.80;;;17.24
68510;BMP180;55512;50.102;19.958;2022-07-18T05:54:54;99681.40;;;17.40
68510;BMP180;55512;50.102;19.958;2022-07-18T05:57:20;99681.60;;;17.52
68510;BMP180;55512;50.102;19.958;2022-07-18T05:59:45;99681.20;;;17.74
68510;BMP180;55512;50.102;19.958;2022-07-18T06:02:11;99676.00;;;17.70
68510;BMP180;55512;50.102;19.958;2022-07-18T06:04:37;99679.00;;;17.80
68510;BMP180;55512;50.102;19.958;2022-07-18T06:07:03;99673.60;;;17.80
68510;BMP180;55512;50.102;19.958;2022-07-18T06:09:29;99680.80;;;17.80
68510;BMP180;55512;50.102;19.958;2022-07-18T06:12:00;99678.80;;;18.10
68510;BMP180;55512;50.102;19.958;2022-07-18T06:14:30;99676.60;;;18.10
68510;BMP180;55512;50.102;19.958;2022-07-18T06:16:58;99679.60;;;18.02
68510;BMP180;55512;50.102;19.958;2022-07-18T06:19:24;99683.20;;;18.00
68510;BMP180;55512;50.102;19.958;2022-07-18T06:21:51;99681.80;;;18.00
68510;BMP180;55512;50.102;19.958;2022-07-18T06:24:17;99682.80;;;17.98
68510;BMP180;55512;50.102;19.958;2022-07-18T06:26:42;99683.20;;;17.80
68510;BMP180;55512;50.102;19.958;2022-07-18T06:29:08;99688.00;;;17.80
68510;BMP180;55512;50.102;19.958;2022-07-18T06:31:34;99685.60;;;18.10
68510;BMP180;55512;50.102;19.958;2022-07-18T06:33:59;99691.80;;;18.28
68510;BMP180;55512;50.102;19.958;2022-07-18T06:36:25;99689.60;;;18.40
68510;BMP180;55512;50.102;19.958;2022-07-18T06:38:51;99685.80;;;18.40
68510;BMP180;55512;50.102;19.958;2022-07-18T06:41:18;99687.40;;;18.50
68510;BMP180;55512;50.102;19.958;2022-07-18T06:43:45;99687.80;;;18.40
68510;BMP180;55512;50.102;19.958;2022-07-18T06:46:11;99688.60;;;18.46
68510;BMP180;55512;50.102;19.958;2022-07-18T06:48:37;99684.60;;;18.78
68510;BMP180;55512;50.102;19.958;2022-07-18T06:51:05;99683.20;;;19.00
68510;BMP180;55512;50.102;19.958;2022-07-18T06:53:32;99683.60;;;19.10
68510;BMP180;55512;50.102;19.958;2022-07-18T06:55:58;99677.00;;;19.20
68510;BMP180;55512;50.102;19.958;2022-07-18T06:58:25;99675.60;;;19.40
68510;BMP180;55512;50.102;19.958;2022-07-18T07:00:51;99682.40;;;19.60
68510;BMP180;55512;50.102;19.958;2022-07-18T07:03:17;99681.40;;;19.80
68510;BMP180;55512;50.102;19.958;2022-07-18T07:05:43;99680.00;;;19.90
68510;BMP180;55512;50.102;19.958;2022-07-18T07:08:09;99680.40;;;20.00
68510;BMP180;55512;50.102;19.958;2022-07-18T07:10:34;99683.60;;;20.20
68510;BMP180;55512;50.102;19.958;2022-07-18T07:13:00;99680.40;;;20.40
68510;BMP180;55512;50.102;19.958;2022-07-18T07:15:26;99682.20;;;20.30
68510;BMP180;55512;50.102;19.958;2022-07-18T07:17:53;99683.80;;;20.30
68510;BMP180;55512;50.102;19.958;2022-07-18T07:20:19;99681.40;;;20.30
68510;BMP180;55512;50.102;19.958;2022-07-18T07:22:53;99689.60;;;20.30
68510;BMP180;55512;50.102;19.958;2022-07-18T07:25:22;99685.40;;;20.34
68510;BMP180;55512;50.102;19.958;2022-07-18T07:27:48;99683.20;;;20.70
68510;BMP180;55512;50.102;19.958;2022-07-18T07:30:15;99679.80;;;20.76
68510;BMP180;55512;50.102;19.958;2022-07-18T07:32:44;99683.80;;;20.90
68510;BMP180;55512;50.102;19.958;2022-07-18T07:35:12;99682.80;;;21.00
68510;BMP180;55512;50.102;19.958;2022-07-18T07:37:41;99682.40;;;21.26
68510;BMP180;55512;50.102;19.958;2022-07-18T07:40:09;99685.00;;;21.42
68510;BMP180;55512;50.102;19.958;2022-07-18T07:42:34;99691.40;;;21.62
68510;BMP180;55512;50.102;19.958;2022-07-18T07:45:00;99693.20;;;21.70
68510;BMP180;55512;50.102;19.958;2022-07-18T07:47:26;99691.40;;;21.70
68510;BMP180;55512;50.102;19.958;2022-07-18T07:49:55;99698.80;;;21.78
68510;BMP180;55512;50.102;19.958;2022-07-18T07:52:21;99690.60;;;21.52
68510;BMP180;55512;50.102;19.958;2022-07-18T07:54:48;99692.40;;;21.70
68510;BMP180;55512;50.102;19.958;2022-07-18T07:57:14;99694.20;;;21.80
68510;BMP180;55512;50.102;19.958;2022-07-18T07:59:40;99695.60;;;21.82
68510;BMP180;55512;50.102;19.958;2022-07-18T08:02:05;99690.60;;;22.10
68510;BMP180;55512;50.102;19.958;2022-07-18T08:04:31;99687.60;;;22.30
68510;BMP180;55512;50.102;19.958;2022-07-18T08:06:57;99688.20;;;22.30
68510;BMP180;55512;50.102;19.958;2022-07-18T08:09:22;99694.60;;;22.40
68510;BMP180;55512;50.102;19.958;2022-07-18T08:11:48;99691.80;;;22.50
68510;BMP180;55512;50.102;19.958;2022-07-18T08:14:14;99681.80;;;22.50
68510;BMP180;55512;50.102;19.958;2022-07-18T08:16:40;99680.80;;;22.50
68510;BMP180;55512;50.102;19.958;2022-07-18T08:19:05;99677.20;;;22.56
68510;BMP180;55512;50.102;19.958;2022-07-18T08:21:32;99682.20;;;22.62
68510;BMP180;55512;50.102;19.958;2022-07-18T08:23:58;99685.20;;;22.78
68510;BMP180;55512;50.102;19.958;2022-07-18T08:26:24;99682.60;;;22.90
68510;BMP180;55512;50.102;19.958;2022-07-18T08:28:51;99681.60;;;23.10
68510;BMP180;55512;50.102;19.958;2022-07-18T08:31:17;99676.60;;;23.26
68510;BMP180;55512;50.102;19.958;2022-07-18T08:33:45;99677.20;;;23.20
68510;BMP180;55512;50.102;19.958;2022-07-18T08:36:11;99674.40;;;23.00
68510;BMP180;55512;50.102;19.958;2022-07-18T08:38:37;99674.00;;;23.00
68510;BMP180;55512;50.102;19.958;2022-07-18T08:41:04;99673.20;;;23.00
68510;BMP180;55512;50.102;19.958;2022-07-18T08:43:30;99672.00;;;22.90
68510;BMP180;55512;50.102;19.958;2022-07-18T08:46:03;99665.20;;;23.00
68510;BMP180;55512;50.102;19.958;2022-07-18T08:48:30;99672.40;;;23.10
68510;BMP180;55512;50.102;19.958;2022-07-18T08:50:56;99666.60;;;23.06
68510;BMP180;55512;50.102;19.958;2022-07-18T08:53:21;99670.20;;;23.10
68510;BMP180;55512;50.102;19.958;2022-07-18T08:55:48;99668.40;;;23.10
68510;BMP180;55512;50.102;19.958;2022-07-18T08:58:15;99672.20;;;23.20
68510;BMP180;55512;50.102;19.958;2022-07-18T09:00:44;99676.20;;;23.30
68510;BMP180;55512;50.102;19.958;2022-07-18T09:03:10;99677.00;;;23.40
68510;BMP180;55512;50.102;19.958;2022-07-18T09:05:36;99667.80;;;23.30
68510;BMP180;55512;50.102;19.958;2022-07-18T09:08:19;99664.80;;;23.30
68510;BMP180;55512;50.102;19.958;2022-07-18T09:10:54;99652.00;;;23.46
68510;BMP180;55512;50.102;19.958;2022-07-18T09:13:35;99663.80;;;23.54
68510;BMP180;55512;50.102;19.958;2022-07-18T09:18:39;99672.80;;;23.90
68510;BMP180;55512;50.102;19.958;2022-07-18T09:21:10;99667.60;;;23.90
68510;BMP180;55512;50.102;19.958;2022-07-18T09:23:43;99668.20;;;24.00
68510;BMP180;55512;50.102;19.958;2022-07-18T09:26:10;99668.80;;;24.10
68510;BMP180;55512;50.102;19.958;2022-07-18T09:28:51;99684.60;;;24.20
68510;BMP180;55512;50.102;19.958;2022-07-18T09:31:23;99672.20;;;24.40
68510;BMP180;55512;50.102;19.958;2022-07-18T09:33:59;99671.20;;;24.50
68510;BMP180;55512;50.102;19.958;2022-07-18T09:36:26;99676.40;;;24.70
68510;BMP180;55512;50.102;19.958;2022-07-18T09:38:53;99673.40;;;24.80
68510;BMP180;55512;50.102;19.958;2022-07-18T09:41:28;99678.00;;;24.70
68510;BMP180;55512;50.102;19.958;2022-07-18T09:43:55;99679.80;;;24.70
68510;BMP180;55512;50.102;19.958;2022-07-18T09:46:21;99672.00;;;24.70
68510;BMP180;55512;50.102;19.958;2022-07-18T09:48:47;99667.40;;;25.06
68510;BMP180;55512;50.102;19.958;2022-07-18T09:51:13;99668.40;;;25.14
68510;BMP180;55512;50.102;19.958;2022-07-18T09:53:44;99666.60;;;25.30
68510;BMP180;55512;50.102;19.958;2022-07-18T09:56:25;99667.40;;;25.50
68510;BMP180;55512;50.102;19.958;2022-07-18T09:58:56;99666.20;;;25.40
68510;BMP180;55512;50.102;19.958;2022-07-18T10:01:23;99669.00;;;25.40
68510;BMP180;55512;50.102;19.958;2022-07-18T10:03:50;99671.40;;;25.50
68510;BMP180;55512;50.102;19.958;2022-07-18T10:06:17;99665.00;;;25.50
68510;BMP180;55512;50.102;19.958;2022-07-18T10:08:46;99661.40;;;25.74
68510;BMP180;55512;50.102;19.958;2022-07-18T10:11:13;99661.80;;;25.90
68510;BMP180;55512;50.102;19.958;2022-07-18T10:13:39;99657.40;;;25.90
68510;BMP180;55512;50.102;19.958;2022-07-18T10:16:05;99662.60;;;26.00
68510;BMP180;55512;50.102;19.958;2022-07-18T10:18:34;99674.80;;;25.90
68510;BMP180;55512;50.102;19.958;2022-07-18T10:21:06;99664.60;;;25.80
68510;BMP180;55512;50.102;19.958;2022-07-18T10:23:50;99663.60;;;25.80
68510;BMP180;55512;50.102;19.958;2022-07-18T10:26:25;99659.00;;;25.70
68510;BMP180;55512;50.102;19.958;2022-07-18T10:31:30;99662.00;;;25.62
68510;BMP180;55512;50.102;19.958;2022-07-18T10:36:40;99659.80;;;26.02
68510;BMP180;55512;50.102;19.958;2022-07-18T10:39:09;99656.40;;;26.20
68510;BMP180;55512;50.102;19.958;2022-07-18T11:00:28;99654.40;;;26.50
68510;BMP180;55512;50.102;19.958;2022-07-18T11:21:32;99630.80;;;26.80
68510;BMP180;55512;50.102;19.958;2022-07-18T11:24:03;99630.60;;;26.80
68510;BMP180;55512;50.102;19.958;2022-07-18T11:26:30;99619.60;;;26.90
68510;BMP180;55512;50.102;19.958;2022-07-18T11:29:02;99624.60;;;27.00
68510;BMP180;55512;50.102;19.958;2022-07-18T11:31:31;99626.80;;;27.00
68510;BMP180;55512;50.102;19.958;2022-07-18T11:34:00;99622.60;;;26.90
68510;BMP180;55512;50.102;19.958;2022-07-18T11:36:32;99618.20;;;26.92
68510;BMP180;55512;50.102;19.958;2022-07-18T11:39:01;99617.00;;;26.70
68510;BMP180;55512;50.102;19.958;2022-07-18T11:41:27;99615.80;;;26.78
68510;BMP180;55512;50.102;19.958;2022-07-18T11:43:55;99617.00;;;26.90
68510;BMP180;55512;50.102;19.958;2022-07-18T11:46:24;99615.20;;;27.06
68510;BMP180;55512;50.102;19.958;2022-07-18T11:49:05;99616.40;;;27.30
68510;BMP180;55512;50.102;19.958;2022-07-18T11:51:39;99612.40;;;27.50
68510;BMP180;55512;50.102;19.958;2022-07-18T11:54:05;99614.60;;;27.70
68510;BMP180;55512;50.102;19.958;2022-07-18T11:56:31;99625.80;;;27.80
68510;BMP180;55512;50.102;19.958;2022-07-18T11:58:57;99615.60;;;27.72
68510;BMP180;55512;50.102;19.958;2022-07-18T12:01:32;99616.00;;;27.90
68510;BMP180;55512;50.102;19.958;2022-07-18T12:03:59;99615.20;;;27.90
68510;BMP180;55512;50.102;19.958;2022-07-18T12:06:25;99605.00;;;27.80
68510;BMP180;55512;50.102;19.958;2022-07-18T12:08:57;99599.00;;;27.60
68510;BMP180;55512;50.102;19.958;2022-07-18T12:11:39;99597.60;;;27.84
68510;BMP180;55512;50.102;19.958;2022-07-18T12:16:35;99598.60;;;28.30
68510;BMP180;55512;50.102;19.958;2022-07-18T12:19:21;99604.40;;;28.48
68510;BMP180;55512;50.102;19.958;2022-07-18T12:22:16;99600.20;;;28.72
68510;BMP180;55512;50.102;19.958;2022-07-18T12:24:54;99603.60;;;29.06
68510;BMP180;55512;50.102;19.958;2022-07-18T12:35:24;99591.40;;;29.20
68510;BMP180;55512;50.102;19.958;2022-07-18T12:38:04;99592.20;;;29.20
68510;BMP180;55512;50.102;19.958;2022-07-18T12:40:55;99589.20;;;29.22
68510;BMP180;55512;50.102;19.958;2022-07-18T12:43:34;99588.60;;;29.50
68510;BMP180;55512;50.102;19.958;2022-07-18T12:46:06;99583.60;;;29.90
68510;BMP180;55512;50.102;19.958;2022-07-18T12:48:33;99582.60;;;30.26
68510;BMP180;55512;50.102;19.958;2022-07-18T12:51:06;99574.20;;;30.60
68510;BMP180;55512;50.102;19.958;2022-07-18T12:53:36;99578.60;;;30.84
68510;BMP180;55512;50.102;19.958;2022-07-18T12:56:03;99575.80;;;30.72
68510;BMP180;55512;50.102;19.958;2022-07-18T12:58:28;99575.40;;;30.40
68510;BMP180;55512;50.102;19.958;2022-07-18T13:00:54;99573.80;;;30.50
68510;BMP180;55512;50.102;19.958;2022-07-18T13:03:22;99577.00;;;30.70
68510;BMP180;55512;50.102;19.958;2022-07-18T13:05:48;99572.80;;;30.80
68510;BMP180;55512;50.102;19.958;2022-07-18T13:08:14;99569.20;;;30.90
68510;BMP180;55512;50.102;19.958;2022-07-18T13:10:40;99567.60;;;31.18
68510;BMP180;55512;50.102;19.958;2022-07-18T13:13:08;99567.60;;;31.30
68510;BMP180;55512;50.102;19.958;2022-07-18T13:15:35;99568.80;;;31.30
68510;BMP180;55512;50.102;19.958;2022-07-18T13:18:01;99566.80;;;31.40
68510;BMP180;55512;50.102;19.958;2022-07-18T13:20:27;99565.00;;;31.78
68510;BMP180;55512;50.102;19.958;2022-07-18T13:22:56;99560.20;;;32.12
68510;BMP180;55512;50.102;19.958;2022-07-18T13:25:22;99562.80;;;32.34
68510;BMP180;55512;50.102;19.958;2022-07-18T13:27:49;99558.60;;;32.10
68510;BMP180;55512;50.102;19.958;2022-07-18T13:30:15;99550.00;;;32.10
68510;BMP180;55512;50.102;19.958;2022-07-18T13:32:40;99552.00;;;32.40
68510;BMP180;55512;50.102;19.958;2022-07-18T13:35:12;99556.00;;;32.98
68510;BMP180;55512;50.102;19.958;2022-07-18T13:37:37;99560.60;;;33.34
68510;BMP180;55512;50.102;19.958;2022-07-18T13:40:04;99553.80;;;33.30
68510;BMP180;55512;50.102;19.958;2022-07-18T13:42:32;99557.60;;;33.36
68510;BMP180;55512;50.102;19.958;2022-07-18T13:44:57;99563.80;;;33.50
68510;BMP180;55512;50.102;19.958;2022-07-18T13:47:25;99563.80;;;33.40
68510;BMP180;55512;50.102;19.958;2022-07-18T13:49:50;99557.20;;;33.40
68510;BMP180;55512;50.102;19.958;2022-07-18T13:52:16;99562.20;;;33.40
68510;BMP180;55512;50.102;19.958;2022-07-18T13:54:42;99558.20;;;33.30
68510;BMP180;55512;50.102;19.958;2022-07-18T13:57:08;99556.60;;;33.24
68510;BMP180;55512;50.102;19.958;2022-07-18T13:59:33;99561.00;;;33.00
68510;BMP180;55512;50.102;19.958;2022-07-18T14:01:59;99555.60;;;32.60
68510;BMP180;55512;50.102;19.958;2022-07-18T14:04:25;99558.20;;;32.60
68510;BMP180;55512;50.102;19.958;2022-07-18T14:06:50;99563.60;;;32.80
68510;BMP180;55512;50.102;19.958;2022-07-18T14:09:16;99567.20;;;33.00
68510;BMP180;55512;50.102;19.958;2022-07-18T14:11:42;99548.40;;;33.00
68510;BMP180;55512;50.102;19.958;2022-07-18T14:14:08;99547.60;;;33.10
68510;BMP180;55512;50.102;19.958;2022-07-18T14:16:33;99541.40;;;33.20
68510;BMP180;55512;50.102;19.958;2022-07-18T14:18:59;99542.40;;;33.50
68510;BMP180;55512;50.102;19.958;2022-07-18T14:21:25;99548.20;;;33.40
68510;BMP180;55512;50.102;19.958;2022-07-18T14:23:51;99542.60;;;33.00
68510;BMP180;55512;50.102;19.958;2022-07-18T14:26:17;99534.40;;;32.90
68510;BMP180;55512;50.102;19.958;2022-07-18T14:28:43;99536.40;;;32.90
68510;BMP180;55512;50.102;19.958;2022-07-18T14:31:09;99536.60;;;33.06
68510;BMP180;55512;50.102;19.958;2022-07-18T14:33:34;99528.40;;;33.20
68510;BMP180;55512;50.102;19.958;2022-07-18T14:36:00;99528.40;;;33.20
68510;BMP180;55512;50.102;19.958;2022-07-18T14:38:26;99525.00;;;33.30
68510;BMP180;55512;50.102;19.958;2022-07-18T14:40:51;99526.40;;;33.46
68510;BMP180;55512;50.102;19.958;2022-07-18T14:43:17;99523.80;;;33.54
68510;BMP180;55512;50.102;19.958;2022-07-18T14:45:43;99528.00;;;33.74
68510;BMP180;55512;50.102;19.958;2022-07-18T14:48:09;99523.80;;;33.70
68510;BMP180;55512;50.102;19.958;2022-07-18T14:50:34;99524.00;;;33.88
68510;BMP180;55512;50.102;19.958;2022-07-18T14:53:00;99522.40;;;34.20